createdAt,value
2022-09-17T00:00:07.750Z,56.07
2022-09-17T00:01:07.679Z,53.01
2022-09-17T00:02:07.733Z,55.75
2022-09-17T00:03:07.707Z,57.20
2022-09-17T00:04:08.643Z,58.33
2022-09-17T00:05:07.636Z,56.56
2022-09-17T00:06:07.629Z,57.04
2022-09-17T00:07:07.618Z,56.72
2022-09-17T00:08:07.603Z,59.30
2022-09-17T00:09:07.615Z,60.10
2022-09-17T00:10:07.677Z,55.27
2022-09-17T00:11:07.574Z,56.88
2022-09-17T00:12:07.567Z,59.94
2022-09-17T00:13:07.674Z,55.43
2022-09-17T00:14:07.558Z,55.75
2022-09-17T00:15:07.530Z,58.17
2022-09-17T00:16:07.581Z,57.20
2022-09-17T00:17:07.511Z,57.85
2022-09-17T00:18:07.505Z,54.46
2022-09-17T00:19:07.535Z,55.59
2022-09-17T00:20:07.484Z,57.85
2022-09-17T00:21:07.476Z,54.79
2022-09-17T00:22:07.467Z,50.60
2022-09-17T00:23:07.455Z,53.66
2022-09-17T00:24:07.502Z,48.98
2022-09-17T00:25:07.437Z,55.43
2022-09-17T00:26:07.426Z,57.52
2022-09-17T00:27:07.419Z,55.27
2022-09-17T00:28:07.407Z,57.36
2022-09-17T00:29:07.480Z,54.62
2022-09-17T00:30:07.402Z,58.97
2022-09-17T00:31:07.417Z,57.20
2022-09-17T00:32:07.371Z,55.75
2022-09-17T00:33:07.359Z,55.75
2022-09-17T00:34:07.357Z,55.75
2022-09-17T00:35:07.380Z,55.75
2022-09-17T00:36:07.328Z,58.17
2022-09-17T00:37:07.325Z,56.40
2022-09-17T00:38:07.320Z,57.52
2022-09-17T00:39:07.305Z,57.36
2022-09-17T00:40:07.396Z,55.91
2022-09-17T00:41:07.284Z,58.49
2022-09-17T00:42:07.265Z,57.04
2022-09-17T00:43:08.264Z,55.59
2022-09-17T00:44:07.253Z,57.36
2022-09-17T00:45:07.325Z,57.36
2022-09-17T00:46:07.283Z,58.49
2022-09-17T00:47:07.224Z,57.20
2022-09-17T00:48:07.219Z,56.72
2022-09-17T00:49:07.207Z,55.27
2022-09-17T00:50:07.200Z,57.52
2022-09-17T00:51:07.202Z,53.66
2022-09-17T00:52:07.183Z,55.43
2022-09-17T00:53:07.167Z,56.40
2022-09-17T00:54:07.170Z,55.11
2022-09-17T00:55:07.152Z,56.24
2022-09-17T00:56:07.165Z,50.92
2022-09-17T00:57:07.132Z,55.59
2022-09-17T00:58:07.124Z,53.66
2022-09-17T00:59:07.125Z,55.75
2022-09-17T01:00:07.101Z,52.05
2022-09-17T01:01:07.243Z,55.43
2022-09-17T01:02:07.119Z,52.69
2022-09-17T01:03:07.076Z,52.05
2022-09-17T01:04:07.067Z,50.27
2022-09-17T01:05:07.057Z,50.27
2022-09-17T01:06:07.074Z,51.72
2022-09-17T01:07:07.040Z,50.92
2022-09-17T01:08:07.028Z,54.95
2022-09-17T01:09:07.032Z,57.85
2022-09-17T01:10:07.011Z,53.82
2022-09-17T01:11:07.003Z,56.56
2022-09-17T01:12:07.037Z,54.46
2022-09-17T01:13:06.977Z,56.07
2022-09-17T01:14:06.972Z,53.01
2022-09-17T01:15:06.961Z,55.75
2022-09-17T01:16:07.009Z,57.36
2022-09-17T01:17:07.034Z,54.95
2022-09-17T01:18:06.931Z,54.14
2022-09-17T01:19:06.918Z,47.05
2022-09-17T01:20:06.943Z,54.95
2022-09-17T01:21:06.912Z,47.53
2022-09-17T01:22:06.902Z,52.53
2022-09-17T01:23:06.875Z,55.27
2022-09-17T01:24:06.861Z,52.05
2022-09-17T01:25:06.853Z,55.75
2022-09-17T01:26:06.870Z,51.56
2022-09-17T01:27:06.852Z,53.98
2022-09-17T01:28:06.830Z,49.79
2022-09-17T01:29:06.817Z,52.85
2022-09-17T01:30:06.846Z,55.11
2022-09-17T01:31:06.852Z,51.56
2022-09-17T01:32:06.805Z,53.33
2022-09-17T01:33:06.851Z,53.17
2022-09-17T01:34:06.770Z,56.56
2022-09-17T01:35:06.754Z,52.69
2022-09-17T01:36:06.766Z,54.62
2022-09-17T01:37:06.757Z,54.46
2022-09-17T01:38:06.739Z,48.50
2022-09-17T01:39:06.718Z,50.27
2022-09-17T01:40:06.820Z,55.75
2022-09-17T01:41:06.714Z,46.08
2022-09-17T01:42:06.709Z,55.43
2022-09-17T01:43:06.738Z,48.02
2022-09-17T01:44:06.674Z,49.31
2022-09-17T01:45:06.663Z,51.56
2022-09-17T01:46:06.706Z,53.17
2022-09-17T01:47:06.655Z,53.66
2022-09-17T01:48:06.629Z,51.08
2022-09-17T01:49:06.711Z,53.66
2022-09-17T01:50:06.624Z,49.63
2022-09-17T01:51:06.613Z,53.50
2022-09-17T01:52:06.605Z,55.11
2022-09-17T01:53:06.580Z,55.11
2022-09-17T01:54:06.572Z,53.66
2022-09-17T01:55:06.558Z,52.37
2022-09-17T01:56:06.567Z,47.86
2022-09-17T01:57:06.590Z,46.57
2022-09-17T01:58:06.534Z,49.47
2022-09-17T01:59:06.517Z,48.98
2022-09-17T02:00:06.544Z,52.53
2022-09-17T02:01:06.629Z,50.11
2022-09-17T02:02:06.557Z,46.73
2022-09-17T02:03:06.485Z,47.21
2022-09-17T02:04:06.474Z,52.37
2022-09-17T02:05:06.550Z,50.60
2022-09-17T02:06:06.472Z,48.82
2022-09-17T02:07:06.443Z,50.76
2022-09-17T02:08:06.445Z,49.31
2022-09-17T02:09:06.426Z,48.82
2022-09-17T02:10:06.512Z,48.82
2022-09-17T02:11:06.403Z,55.43
2022-09-17T02:12:06.413Z,46.89
2022-09-17T02:13:06.383Z,54.30
2022-09-17T02:14:06.373Z,47.53
2022-09-17T02:15:06.363Z,51.08
2022-09-17T02:16:06.448Z,48.98
2022-09-17T02:17:06.341Z,44.79
2022-09-17T02:18:06.335Z,51.08
2022-09-17T02:19:06.325Z,53.01
2022-09-17T02:20:06.326Z,53.17
2022-09-17T02:21:06.380Z,49.63
2022-09-17T02:22:06.311Z,49.47
2022-09-17T02:23:06.278Z,43.02
2022-09-17T02:24:06.275Z,51.88
2022-09-17T02:25:06.265Z,52.53
2022-09-17T02:26:06.267Z,51.56
2022-09-17T02:27:06.246Z,49.79
2022-09-17T02:28:06.240Z,55.59
2022-09-17T02:29:06.226Z,47.86
2022-09-17T02:30:06.207Z,48.98
2022-09-17T02:31:07.295Z,46.89
2022-09-17T02:32:06.195Z,51.40
2022-09-17T02:33:06.185Z,52.85
2022-09-17T02:34:06.259Z,52.21
2022-09-17T02:35:06.160Z,50.43
2022-09-17T02:36:06.153Z,52.53
2022-09-17T02:37:06.234Z,46.41
2022-09-17T02:38:06.171Z,50.60
2022-09-17T02:39:06.121Z,53.82
2022-09-17T02:40:06.180Z,50.60
2022-09-17T02:41:06.103Z,45.92
2022-09-17T02:42:06.109Z,53.17
2022-09-17T02:43:06.079Z,49.15
2022-09-17T02:44:06.074Z,46.41
2022-09-17T02:45:06.065Z,47.37
2022-09-17T02:46:06.150Z,51.08
2022-09-17T02:47:06.060Z,49.79
2022-09-17T02:48:06.034Z,49.95
2022-09-17T02:49:06.018Z,52.85
2022-09-17T02:50:06.016Z,48.82
2022-09-17T02:51:06.004Z,49.31
2022-09-17T02:52:06.807Z,41.73
2022-09-17T02:53:06.060Z,51.40
2022-09-17T02:54:05.964Z,52.05
2022-09-17T02:55:05.954Z,43.83
2022-09-17T02:56:05.941Z,51.56
2022-09-17T02:57:05.973Z,47.86
2022-09-17T02:58:05.947Z,49.15
2022-09-17T02:59:05.914Z,52.21
2022-09-17T03:00:05.935Z,50.76
2022-09-17T03:01:05.938Z,46.73
2022-09-17T03:02:06.041Z,48.34
2022-09-17T03:03:05.874Z,49.15
2022-09-17T03:04:05.866Z,50.43
2022-09-17T03:05:05.854Z,49.31
2022-09-17T03:06:05.841Z,43.67
2022-09-17T03:07:05.839Z,48.34
2022-09-17T03:08:05.841Z,51.56
2022-09-17T03:09:05.896Z,51.56
2022-09-17T03:10:05.843Z,49.63
2022-09-17T03:11:05.797Z,49.79
2022-09-17T03:12:05.806Z,51.08
2022-09-17T03:13:05.775Z,50.27
2022-09-17T03:14:05.767Z,53.66
2022-09-17T03:15:05.756Z,51.08
2022-09-17T03:16:05.789Z,51.24
2022-09-17T03:17:05.730Z,50.27
2022-09-17T03:18:05.736Z,48.66
2022-09-17T03:19:05.711Z,52.69
2022-09-17T03:20:05.767Z,45.28
2022-09-17T03:21:05.692Z,45.76
2022-09-17T03:22:05.703Z,49.95
2022-09-17T03:23:05.671Z,50.76
2022-09-17T03:24:05.664Z,52.53
2022-09-17T03:25:06.731Z,48.02
2022-09-17T03:26:05.641Z,42.70
2022-09-17T03:27:05.634Z,46.25
2022-09-17T03:28:05.637Z,44.31
2022-09-17T03:29:05.612Z,45.28
2022-09-17T03:30:05.610Z,45.12
2022-09-17T03:31:05.685Z,45.28
2022-09-17T03:32:05.578Z,45.76
2022-09-17T03:33:05.580Z,43.67
2022-09-17T03:34:05.560Z,47.86
2022-09-17T03:35:05.549Z,48.98
2022-09-17T03:36:05.533Z,52.21
2022-09-17T03:37:05.520Z,49.95
2022-09-17T03:38:05.514Z,46.41
2022-09-17T03:39:05.521Z,48.34
2022-09-17T03:40:05.569Z,47.21
2022-09-17T03:41:05.568Z,51.08
2022-09-17T03:42:05.473Z,48.18
2022-09-17T03:43:05.461Z,49.79
2022-09-17T03:44:05.482Z,53.50
2022-09-17T03:45:05.449Z,48.66
2022-09-17T03:46:05.472Z,48.50
2022-09-17T03:47:05.419Z,49.47
2022-09-17T03:48:05.423Z,49.79
2022-09-17T03:49:05.411Z,49.15
2022-09-17T03:50:05.386Z,48.02
2022-09-17T03:51:05.381Z,46.89
2022-09-17T03:52:05.367Z,48.34
2022-09-17T03:53:05.353Z,48.66
2022-09-17T03:54:05.364Z,45.76
2022-09-17T03:55:05.342Z,48.98
2022-09-17T03:56:05.325Z,48.98
2022-09-17T03:57:05.412Z,52.37
2022-09-17T03:58:05.306Z,50.92
2022-09-17T03:59:05.295Z,46.08
2022-09-17T04:00:05.297Z,47.05
2022-09-17T04:01:05.286Z,46.89
2022-09-17T04:02:05.304Z,49.47
2022-09-17T04:03:05.288Z,46.08
2022-09-17T04:04:05.245Z,49.47
2022-09-17T04:05:05.263Z,45.28
2022-09-17T04:06:05.239Z,47.86
2022-09-17T04:07:05.215Z,50.76
2022-09-17T04:08:05.208Z,49.79
2022-09-17T04:09:05.197Z,48.82
2022-09-17T04:10:05.196Z,44.15
2022-09-17T04:11:05.175Z,49.47
2022-09-17T04:12:05.160Z,41.25
2022-09-17T04:13:05.238Z,47.37
2022-09-17T04:14:05.143Z,45.44
2022-09-17T04:15:05.157Z,48.98
2022-09-17T04:16:05.173Z,47.53
2022-09-17T04:17:05.116Z,49.31
2022-09-17T04:18:05.107Z,48.50
2022-09-17T04:19:05.100Z,46.41
2022-09-17T04:20:05.141Z,47.86
2022-09-17T04:21:05.078Z,47.86
2022-09-17T04:22:05.060Z,50.11
2022-09-17T04:23:05.054Z,52.37
2022-09-17T04:24:05.040Z,51.56
2022-09-17T04:25:05.033Z,47.53
2022-09-17T04:26:05.050Z,48.82
2022-09-17T04:27:05.010Z,47.53
2022-09-17T04:28:04.999Z,46.25
2022-09-17T04:29:05.073Z,45.92
2022-09-17T04:30:05.000Z,43.67
2022-09-17T04:31:05.015Z,44.31
2022-09-17T04:32:04.982Z,49.95
2022-09-17T04:33:04.955Z,49.63
2022-09-17T04:34:04.944Z,47.37
2022-09-17T04:35:04.927Z,49.79
2022-09-17T04:36:04.941Z,48.66
2022-09-17T04:37:04.915Z,50.27
2022-09-17T04:38:04.897Z,48.18
2022-09-17T04:39:04.894Z,51.24
2022-09-17T04:40:07.932Z,47.86
2022-09-17T04:41:05.866Z,51.56
2022-09-17T04:42:04.860Z,50.43
2022-09-17T04:43:04.842Z,44.96
2022-09-17T04:44:04.835Z,49.15
2022-09-17T04:45:04.910Z,47.21
2022-09-17T04:46:04.925Z,48.34
2022-09-17T04:47:04.804Z,49.63
2022-09-17T04:48:04.792Z,50.60
2022-09-17T04:49:04.792Z,50.11
2022-09-17T04:50:04.822Z,54.79
2022-09-17T04:51:04.781Z,49.31
2022-09-17T04:52:04.756Z,48.82
2022-09-17T04:53:04.741Z,50.27
2022-09-17T04:54:04.730Z,47.05
2022-09-17T04:55:04.720Z,48.18
2022-09-17T04:56:04.722Z,52.05
2022-09-17T04:57:04.695Z,48.82
2022-09-17T04:58:04.695Z,52.53
2022-09-17T04:59:04.667Z,51.40
2022-09-17T05:00:05.708Z,52.53
2022-09-17T05:01:04.886Z,45.28
2022-09-17T05:02:04.731Z,49.63
2022-09-17T05:03:04.638Z,50.11
2022-09-17T05:04:04.626Z,47.86
2022-09-17T05:05:04.617Z,49.47
2022-09-17T05:06:04.604Z,51.40
2022-09-17T05:07:04.608Z,47.86
2022-09-17T05:08:04.594Z,46.89
2022-09-17T05:09:04.586Z,48.18
2022-09-17T05:10:04.577Z,51.56
2022-09-17T05:11:04.547Z,49.63
2022-09-17T05:12:05.561Z,50.60
2022-09-17T05:13:04.537Z,52.69
2022-09-17T05:14:04.529Z,45.60
2022-09-17T05:15:04.519Z,48.98
2022-09-17T05:16:04.553Z,47.53
2022-09-17T05:17:04.594Z,47.86
2022-09-17T05:18:04.485Z,50.43
2022-09-17T05:19:04.474Z,49.79
2022-09-17T05:20:04.524Z,46.25
2022-09-17T05:21:04.456Z,50.92
2022-09-17T05:22:04.448Z,49.15
2022-09-17T05:23:04.449Z,48.98
2022-09-17T05:24:04.419Z,50.92
2022-09-17T05:25:04.412Z,48.02
2022-09-17T05:26:04.403Z,46.08
2022-09-17T05:27:04.404Z,48.34
2022-09-17T05:28:04.380Z,52.37
2022-09-17T05:29:04.365Z,48.66
2022-09-17T05:30:04.362Z,46.08
2022-09-17T05:31:04.389Z,49.63
2022-09-17T05:32:04.337Z,48.82
2022-09-17T05:33:04.425Z,49.31
2022-09-17T05:34:04.317Z,49.15
2022-09-17T05:35:05.776Z,50.11
2022-09-17T05:36:05.300Z,47.37
2022-09-17T05:37:04.284Z,51.88
2022-09-17T05:38:04.309Z,50.27
2022-09-17T05:39:04.271Z,50.11
2022-09-17T05:40:04.373Z,50.27
2022-09-17T05:41:04.259Z,50.92
2022-09-17T05:42:04.240Z,44.15
2022-09-17T05:43:04.267Z,47.70
2022-09-17T05:44:04.221Z,46.89
2022-09-17T05:45:04.205Z,47.86
2022-09-17T05:46:04.194Z,49.79
2022-09-17T05:47:04.186Z,52.85
2022-09-17T05:48:04.195Z,49.31
2022-09-17T05:49:04.264Z,47.86
2022-09-17T05:50:04.152Z,48.82
2022-09-17T05:51:04.148Z,50.27
2022-09-17T05:52:04.160Z,51.56
2022-09-17T05:53:04.118Z,49.95
2022-09-17T05:54:04.124Z,49.47
2022-09-17T05:55:04.115Z,46.89
2022-09-17T05:56:04.091Z,50.27
2022-09-17T05:57:04.075Z,44.63
2022-09-17T05:58:04.067Z,49.47
2022-09-17T05:59:04.074Z,49.95
2022-09-17T06:00:04.048Z,46.25
2022-09-17T06:01:04.035Z,47.05
2022-09-17T06:02:04.046Z,49.63
2022-09-17T06:03:04.081Z,51.40
2022-09-17T06:04:04.016Z,47.53
2022-09-17T06:05:05.076Z,50.27
2022-09-17T06:06:03.989Z,51.56
2022-09-17T06:07:03.984Z,51.24
2022-09-17T06:08:03.968Z,49.15
2022-09-17T06:09:03.963Z,47.37
2022-09-17T06:10:03.965Z,52.05
2022-09-17T06:11:03.938Z,51.24
2022-09-17T06:12:03.929Z,50.11
2022-09-17T06:13:03.922Z,50.11
2022-09-17T06:14:03.908Z,48.18
2022-09-17T06:15:03.918Z,52.21
2022-09-17T06:16:03.919Z,52.21
2022-09-17T06:17:03.881Z,52.85
2022-09-17T06:18:03.869Z,50.76
2022-09-17T06:19:03.860Z,46.73
2022-09-17T06:20:03.849Z,51.72
2022-09-17T06:21:03.956Z,51.72
2022-09-17T06:22:03.835Z,52.21
2022-09-17T06:23:03.820Z,47.37
2022-09-17T06:24:03.811Z,49.63
2022-09-17T06:25:03.801Z,53.33
2022-09-17T06:26:03.807Z,48.98
2022-09-17T06:27:03.784Z,48.50
2022-09-17T06:28:03.771Z,46.57
2022-09-17T06:29:03.763Z,49.15
2022-09-17T06:30:03.747Z,49.79
2022-09-17T06:31:03.780Z,50.27
2022-09-17T06:32:04.725Z,52.21
2022-09-17T06:33:03.715Z,50.27
2022-09-17T06:34:05.158Z,53.17
2022-09-17T06:35:03.699Z,49.63
2022-09-17T06:36:03.683Z,52.53
2022-09-17T06:37:03.765Z,53.66
2022-09-17T06:38:03.661Z,52.21
2022-09-17T06:39:03.660Z,47.70
2022-09-17T06:40:03.737Z,52.53
2022-09-17T06:41:03.631Z,51.56
2022-09-17T06:42:03.640Z,50.76
2022-09-17T06:43:03.608Z,50.60
2022-09-17T06:44:03.602Z,49.79
2022-09-17T06:45:08.128Z,50.11
2022-09-17T06:46:05.664Z,47.70
2022-09-17T06:47:03.587Z,51.24
2022-09-17T06:48:03.560Z,51.40
2022-09-17T06:49:03.552Z,51.40
2022-09-17T06:50:03.542Z,48.98
2022-09-17T06:51:03.536Z,49.31
2022-09-17T06:52:03.517Z,52.85
2022-09-17T06:53:03.608Z,49.31
2022-09-17T06:54:03.498Z,49.31
2022-09-17T06:55:03.493Z,51.72
2022-09-17T06:56:06.487Z,52.21
2022-09-17T06:57:04.476Z,53.33
2022-09-17T06:58:03.482Z,53.17
2022-09-17T06:59:03.452Z,51.72
2022-09-17T07:00:03.440Z,52.21
2022-09-17T07:01:03.453Z,53.66
2022-09-17T07:02:03.461Z,50.43
2022-09-17T07:03:03.437Z,52.53
2022-09-17T07:04:03.399Z,50.43
2022-09-17T07:05:03.390Z,51.88
2022-09-17T07:06:03.376Z,54.79
2022-09-17T07:07:03.367Z,56.07
2022-09-17T07:08:03.404Z,54.30
2022-09-17T07:09:05.931Z,49.95
2022-09-17T07:10:03.329Z,54.14
2022-09-17T07:11:03.326Z,49.79
2022-09-17T07:12:03.315Z,55.11
2022-09-17T07:13:03.304Z,50.27
2022-09-17T07:14:03.309Z,54.46
2022-09-17T07:15:03.288Z,56.07
2022-09-17T07:16:03.335Z,52.37
2022-09-17T07:17:03.262Z,53.33
2022-09-17T07:18:03.254Z,55.75
2022-09-17T07:19:03.275Z,54.14
2022-09-17T07:20:03.234Z,54.62
2022-09-17T07:21:03.218Z,57.36
2022-09-17T07:22:03.212Z,54.79
2022-09-17T07:23:03.196Z,56.72
2022-09-17T07:24:03.221Z,52.85
2022-09-17T07:25:03.261Z,54.62
2022-09-17T07:26:03.197Z,51.56
2022-09-17T07:27:03.154Z,55.11
2022-09-17T07:28:03.149Z,54.79
2022-09-17T07:29:03.147Z,56.24
2022-09-17T07:30:03.150Z,54.79
2022-09-17T07:31:03.172Z,49.79
2022-09-17T07:32:03.110Z,55.59
2022-09-17T07:33:03.097Z,55.27
2022-09-17T07:34:03.090Z,56.40
2022-09-17T07:35:03.095Z,50.60
2022-09-17T07:36:03.069Z,53.33
2022-09-17T07:37:03.055Z,53.66
2022-09-17T07:38:03.052Z,56.40
2022-09-17T07:39:03.038Z,57.20
2022-09-17T07:40:03.164Z,54.30
2022-09-17T07:41:03.095Z,57.20
2022-09-17T07:42:03.003Z,57.36
2022-09-17T07:43:02.992Z,56.24
2022-09-17T07:44:02.985Z,57.85
2022-09-17T07:45:02.977Z,56.07
2022-09-17T07:46:03.022Z,57.85
2022-09-17T07:47:02.976Z,57.69
2022-09-17T07:48:02.944Z,53.98
2022-09-17T07:49:03.198Z,54.95
2022-09-17T07:50:02.924Z,54.62
2022-09-17T07:51:02.939Z,50.92
2022-09-17T07:52:02.906Z,56.72
2022-09-17T07:53:02.892Z,54.62
2022-09-17T07:54:02.901Z,56.40
2022-09-17T07:55:02.875Z,54.95
2022-09-17T07:56:02.860Z,56.72
2022-09-17T07:57:02.950Z,58.33
2022-09-17T07:58:02.853Z,57.85
2022-09-17T07:59:02.839Z,55.91
2022-09-17T08:00:02.838Z,54.79
2022-09-17T08:01:02.823Z,54.79
2022-09-17T08:02:02.971Z,56.88
2022-09-17T08:03:02.909Z,54.62
2022-09-17T08:04:02.785Z,56.88
2022-09-17T08:05:02.775Z,59.30
2022-09-17T08:06:02.762Z,56.72
2022-09-17T08:07:02.798Z,57.20
2022-09-17T08:08:02.746Z,58.97
2022-09-17T08:09:02.733Z,57.20
2022-09-17T08:10:02.725Z,57.36
2022-09-17T08:11:02.713Z,56.88
2022-09-17T08:12:02.732Z,57.85
2022-09-17T08:13:02.780Z,56.72
2022-09-17T08:14:02.681Z,57.52
2022-09-17T08:15:02.672Z,56.07
2022-09-17T08:16:02.746Z,57.36
2022-09-17T08:17:02.652Z,58.33
2022-09-17T08:18:02.660Z,55.75
2022-09-17T08:19:02.631Z,57.04
2022-09-17T08:20:02.664Z,54.95
2022-09-17T08:21:02.611Z,57.04
2022-09-17T08:22:02.609Z,58.33
2022-09-17T08:23:02.624Z,58.81
2022-09-17T08:24:02.581Z,58.33
2022-09-17T08:25:02.576Z,58.81
2022-09-17T08:26:02.563Z,59.14
2022-09-17T08:27:02.557Z,58.65
2022-09-17T08:28:02.587Z,58.97
2022-09-17T08:29:02.622Z,58.49
2022-09-17T08:30:02.550Z,57.52
2022-09-17T08:31:02.551Z,58.17
2022-09-17T08:32:02.507Z,58.97
2022-09-17T08:33:02.495Z,58.49
2022-09-17T08:34:02.504Z,59.14
2022-09-17T08:35:02.476Z,58.49
2022-09-17T08:36:02.463Z,59.30
2022-09-17T08:37:02.453Z,58.65
2022-09-17T08:38:02.440Z,58.33
2022-09-17T08:39:02.448Z,58.97
2022-09-17T08:40:02.536Z,56.88
2022-09-17T08:41:02.415Z,57.36
2022-09-17T08:42:02.408Z,55.75
2022-09-17T08:43:02.436Z,58.65
2022-09-17T08:44:02.398Z,58.65
2022-09-17T08:45:02.463Z,57.85
2022-09-17T08:46:02.371Z,61.07
2022-09-17T08:47:02.361Z,57.85
2022-09-17T08:48:02.346Z,57.85
2022-09-17T08:49:02.352Z,58.81
2022-09-17T08:50:02.329Z,58.97
2022-09-17T08:51:06.643Z,57.04
2022-09-17T08:52:04.305Z,57.85
2022-09-17T08:53:02.292Z,58.65
2022-09-17T08:54:02.314Z,59.30
2022-09-17T08:55:02.275Z,58.81
2022-09-17T08:56:02.265Z,59.46
2022-09-17T08:57:02.254Z,57.85
2022-09-17T08:58:02.246Z,59.14
2022-09-17T08:59:02.286Z,59.30
2022-09-17T09:00:02.247Z,59.46
2022-09-17T09:01:02.302Z,59.14
2022-09-17T09:02:02.289Z,59.46
2022-09-17T09:03:02.278Z,58.17
2022-09-17T09:04:02.182Z,58.81
2022-09-17T09:05:02.217Z,60.10
2022-09-17T09:06:02.164Z,59.46
2022-09-17T09:07:02.152Z,59.14
2022-09-17T09:08:02.138Z,57.36
2022-09-17T09:09:02.134Z,58.65
2022-09-17T09:10:02.140Z,59.62
2022-09-17T09:11:02.111Z,58.81
2022-09-17T09:12:02.100Z,57.85
2022-09-17T09:13:02.093Z,60.42
2022-09-17T09:14:02.079Z,59.62
2022-09-17T09:15:02.094Z,59.14
2022-09-17T09:16:02.098Z,59.78
2022-09-17T09:17:02.129Z,57.69
2022-09-17T09:18:02.030Z,58.97
2022-09-17T09:19:02.021Z,59.46
2022-09-17T09:20:02.058Z,59.14
2022-09-17T09:21:02.001Z,58.17
2022-09-17T09:22:01.983Z,59.78
2022-09-17T09:23:02.982Z,58.81
2022-09-17T09:24:01.972Z,59.46
2022-09-17T09:25:02.004Z,58.49
2022-09-17T09:26:01.960Z,58.97
2022-09-17T09:27:01.952Z,59.30
2022-09-17T09:28:01.938Z,57.85
2022-09-17T09:29:01.935Z,57.69
2022-09-17T09:30:01.990Z,59.30
2022-09-17T09:31:01.933Z,58.81
2022-09-17T09:32:01.899Z,58.33
2022-09-17T09:33:01.969Z,56.07
2022-09-17T09:34:01.867Z,59.94
2022-09-17T09:35:02.891Z,59.78
2022-09-17T09:36:01.846Z,59.46
2022-09-17T09:37:01.845Z,59.30
2022-09-17T09:38:01.829Z,61.07
2022-09-17T09:39:01.817Z,59.14
2022-09-17T09:40:01.864Z,59.46
2022-09-17T09:41:01.812Z,62.52
2022-09-17T09:42:01.786Z,59.62
2022-09-17T09:43:01.788Z,58.01
2022-09-17T09:44:04.426Z,61.07
2022-09-17T09:45:05.177Z,61.23
2022-09-17T09:46:02.771Z,60.10
2022-09-17T09:47:01.846Z,62.52
2022-09-17T09:48:01.724Z,60.26
2022-09-17T09:49:01.800Z,59.94
2022-09-17T09:50:01.706Z,61.07
2022-09-17T09:51:06.691Z,58.49
2022-09-17T09:52:03.701Z,59.62
2022-09-17T09:53:01.677Z,57.85
2022-09-17T09:54:01.664Z,58.33
2022-09-17T09:55:01.663Z,59.14
2022-09-17T09:56:01.659Z,59.46
2022-09-17T09:57:01.650Z,59.14
2022-09-17T09:58:01.622Z,57.85
2022-09-17T09:59:01.668Z,59.78
2022-09-17T10:00:01.610Z,59.14
2022-09-17T10:01:01.614Z,58.49
2022-09-17T10:02:01.716Z,58.65
2022-09-17T10:03:01.622Z,59.62
2022-09-17T10:04:01.561Z,57.85
2022-09-17T10:05:01.638Z,58.97
2022-09-17T10:06:01.557Z,58.81
2022-09-17T10:07:01.548Z,59.30
2022-09-17T10:08:01.524Z,58.97
2022-09-17T10:09:01.512Z,58.97
2022-09-17T10:10:01.512Z,58.33
2022-09-17T10:11:01.514Z,57.69
2022-09-17T10:12:01.497Z,59.94
2022-09-17T10:13:01.471Z,59.30
2022-09-17T10:14:01.458Z,58.33
2022-09-17T10:15:01.451Z,58.97
2022-09-17T10:16:01.478Z,56.56
2022-09-17T10:17:01.445Z,57.85
2022-09-17T10:18:01.424Z,55.91
2022-09-17T10:19:01.410Z,55.11
2022-09-17T10:20:01.400Z,58.81
2022-09-17T10:21:01.519Z,58.49
2022-09-17T10:22:01.394Z,58.17
2022-09-17T10:23:01.364Z,58.97
2022-09-17T10:24:01.359Z,59.94
2022-09-17T10:25:01.343Z,55.75
2022-09-17T10:26:01.342Z,57.04
2022-09-17T10:27:01.340Z,55.91
2022-09-17T10:28:01.317Z,57.52
2022-09-17T10:29:01.379Z,58.17
2022-09-17T10:30:01.300Z,57.04
2022-09-17T10:31:05.141Z,58.65
2022-09-17T10:32:02.299Z,58.17
2022-09-17T10:33:01.270Z,59.14
2022-09-17T10:34:01.260Z,58.81
2022-09-17T10:35:01.250Z,56.72
2022-09-17T10:36:01.241Z,60.26
2022-09-17T10:37:01.324Z,59.14
2022-09-17T10:38:01.219Z,57.85
2022-09-17T10:39:01.216Z,57.85
2022-09-17T10:40:01.272Z,58.01
2022-09-17T10:41:01.193Z,59.62
2022-09-17T10:42:01.212Z,57.52
2022-09-17T10:43:02.164Z,57.69
2022-09-17T10:44:01.253Z,58.97
2022-09-17T10:45:01.143Z,58.49
2022-09-17T10:46:01.136Z,59.30
2022-09-17T10:47:01.215Z,57.04
2022-09-17T10:48:01.136Z,58.97
2022-09-17T10:49:01.116Z,58.49
2022-09-17T10:50:01.103Z,59.30
2022-09-17T10:51:01.085Z,57.52
2022-09-17T10:52:01.077Z,54.30
2022-09-17T10:53:01.161Z,57.20
2022-09-17T10:54:01.057Z,59.78
2022-09-17T10:55:01.047Z,59.30
2022-09-17T10:56:01.042Z,58.81
2022-09-17T10:57:01.029Z,59.62
2022-09-17T10:58:01.073Z,59.94
2022-09-17T10:59:01.059Z,59.62
2022-09-17T11:00:00.995Z,62.84
2022-09-17T11:01:00.983Z,54.62
2022-09-17T11:02:01.009Z,56.88
2022-09-17T11:03:01.066Z,59.94
2022-09-17T11:04:00.954Z,60.10
2022-09-17T11:05:00.944Z,58.97
2022-09-17T11:06:00.942Z,60.10
2022-09-17T11:07:00.927Z,58.17
2022-09-17T11:08:00.916Z,60.42
2022-09-17T11:09:01.006Z,59.94
2022-09-17T11:10:00.910Z,61.23
2022-09-17T11:11:00.887Z,60.26
2022-09-17T11:12:00.874Z,60.26
2022-09-17T11:13:00.870Z,60.91
2022-09-17T11:14:00.975Z,59.94
2022-09-17T11:15:00.860Z,59.62
2022-09-17T11:16:00.875Z,59.62
2022-09-17T11:17:01.834Z,59.78
2022-09-17T11:18:00.825Z,60.10
2022-09-17T11:19:00.841Z,60.91
2022-09-17T11:20:00.797Z,60.59
2022-09-17T11:21:00.793Z,59.30
2022-09-17T11:22:00.781Z,60.10
2022-09-17T11:23:00.772Z,59.14
2022-09-17T11:24:00.764Z,59.14
2022-09-17T11:25:00.881Z,59.78
2022-09-17T11:26:01.291Z,58.97
2022-09-17T11:27:01.734Z,58.97
2022-09-17T11:28:00.750Z,59.94
2022-09-17T11:29:00.847Z,59.46
2022-09-17T11:30:00.732Z,58.01
2022-09-17T11:31:00.765Z,58.97
2022-09-17T11:32:00.766Z,59.78
2022-09-17T11:33:00.674Z,58.81
2022-09-17T11:34:00.664Z,58.49
2022-09-17T11:35:00.695Z,58.49
2022-09-17T11:36:00.649Z,58.81
2022-09-17T11:37:00.634Z,59.46
2022-09-17T11:38:00.626Z,59.46
2022-09-17T11:39:00.613Z,60.42
2022-09-17T11:40:00.661Z,59.46
2022-09-17T11:41:00.721Z,59.46
2022-09-17T11:42:00.597Z,60.42
2022-09-17T11:43:00.571Z,60.59
2022-09-17T11:44:00.644Z,59.46
2022-09-17T11:45:00.562Z,59.78
2022-09-17T11:46:00.559Z,59.78
2022-09-17T11:47:00.568Z,59.62
2022-09-17T11:48:00.537Z,59.78
2022-09-17T11:49:00.512Z,56.72
2022-09-17T11:50:00.506Z,60.26
2022-09-17T11:51:00.508Z,61.07
2022-09-17T11:52:00.482Z,62.04
2022-09-17T11:53:00.497Z,61.55
2022-09-17T11:54:00.465Z,59.46
2022-09-17T11:55:00.459Z,59.94
2022-09-17T11:56:00.484Z,59.62
2022-09-17T11:57:00.516Z,58.81
2022-09-17T11:58:00.422Z,60.10
2022-09-17T11:59:00.589Z,59.46
2022-09-17T12:00:00.409Z,60.91
2022-09-17T12:01:00.436Z,59.46
2022-09-17T12:02:00.427Z,60.42
2022-09-17T12:03:00.443Z,61.71
2022-09-17T12:04:00.366Z,59.78
2022-09-17T12:05:00.359Z,60.59
2022-09-17T12:06:00.348Z,60.91
2022-09-17T12:07:00.356Z,60.26
2022-09-17T12:08:00.329Z,60.75
2022-09-17T12:09:00.322Z,62.20
2022-09-17T12:10:00.311Z,62.52
2022-09-17T12:11:00.302Z,60.26
2022-09-17T12:12:00.313Z,61.55
2022-09-17T12:13:00.368Z,59.78
2022-09-17T12:14:00.410Z,60.10
2022-09-17T12:15:00.263Z,60.42
2022-09-17T12:16:00.302Z,59.94
2022-09-17T12:17:00.271Z,60.26
2022-09-17T12:18:27.877Z,60.75
2022-09-17T12:19:02.221Z,58.97
2022-09-17T12:20:00.210Z,59.78
2022-09-17T12:21:00.202Z,60.59
2022-09-17T12:22:00.238Z,59.14
2022-09-17T12:23:00.179Z,59.46
2022-09-17T12:24:00.168Z,59.46
2022-09-17T12:25:00.173Z,61.71
2022-09-17T12:26:00.157Z,59.14
2022-09-17T12:27:00.142Z,58.81
2022-09-17T12:28:00.145Z,58.97
2022-09-17T12:29:00.384Z,59.46
2022-09-17T12:30:00.763Z,59.78
2022-09-17T12:31:01.181Z,60.42
2022-09-17T12:32:00.091Z,59.62
2022-09-17T12:33:00.100Z,59.94
2022-09-17T12:34:00.078Z,59.78
2022-09-17T12:35:00.078Z,59.30
2022-09-17T12:36:04.496Z,59.30
2022-09-17T12:37:02.039Z,59.94
2022-09-17T12:38:00.067Z,58.97
2022-09-17T12:39:03.155Z,59.46
2022-09-17T12:40:01.061Z,58.17
2022-09-17T12:40:59.995Z,59.94
2022-09-17T12:41:59.985Z,59.78
2022-09-17T12:43:00.009Z,62.04
2022-09-17T12:44:00.013Z,60.10
2022-09-17T12:45:00.050Z,59.94
2022-09-17T12:45:59.954Z,59.94
2022-09-17T12:46:59.974Z,60.26
2022-09-17T12:47:59.932Z,59.62
2022-09-17T12:48:59.941Z,58.81
2022-09-17T12:49:59.914Z,60.26
2022-09-17T12:50:59.904Z,58.97
2022-09-17T12:51:59.898Z,58.01